KDRT/DRT METAR and TAF weather

Enter ICAO airport designator
Station Type Date Time Source
KDRT METAR 2022/12/08 14:02 UTC NOAA

KDRT 081402Z AUTO 10003KT 1/4SM FG VV003 20/18 A3015 RMK AO2 T02000183


Station Type Date Time Source
KDRT Decoded METAR 2022/12/08 14:02 UTC NOAA

DEL RIO INTERNATIONAL AIRPORT, TX, United States (KDRT) 29-22N 100-55W 313M
Dec 08, 2022 - 09:02 AM EST / 2022.12.08 1402 UTC
Wind: from the E (100 degrees) at 3 MPH (3 KT):0
Visibility: 1/4 mile(s):0
Sky conditions: obscured
Weather: fog
Temperature: 68.0 F (20.0 C)
Dew Point: 64.9 F (18.3 C)
Relative Humidity: 89%
Pressure (altimeter): 30.15 in. Hg (1020 hPa)
ob: KDRT 081402Z AUTO 10003KT 1/4SM FG VV003 20/18 A3015 RMK AO2 T02000183
cycle: 14

Station Type Date Time Source
KDRT TAF 2022/12/08 14:58 UTC NOAA

TAF
AMD KDRT 081358Z 0814/0912 00000KT 1/4SM FG OVC003
FM081500 VRB03KT 2SM BR OVC004
FM081600 14006KT 3SM BR OVC006
FM081700 15008KT P6SM OVC010
FM081900 14007KT P6SM BKN020
FM090800 08004KT 6SM BR OVC007

Example: see airport list